sensor_id;sensor_type;location;lat;lon;timestamp;P1;durP1;ratioP1;P2;durP2;ratioP2
44774;SDS011;31340;51.402;0.016;2023-10-19T00:00:36;15.90;;;2.75;;
44774;SDS011;31340;51.402;0.016;2023-10-19T00:03:11;13.40;;;2.00;;
44774;SDS011;31340;51.402;0.016;2023-10-19T00:05:39;16.40;;;2.15;;
44774;SDS011;31340;51.402;0.016;2023-10-19T00:08:12;22.92;;;3.03;;
44774;SDS011;31340;51.402;0.016;2023-10-19T00:10:40;17.02;;;2.75;;
44774;SDS011;31340;51.402;0.016;2023-10-19T00:13:15;14.75;;;2.47;;
44774;SDS011;31340;51.402;0.016;2023-10-19T00:18:18;15.43;;;2.83;;
44774;SDS011;31340;51.402;0.016;2023-10-19T00:20:50;15.80;;;2.35;;
44774;SDS011;31340;51.402;0.016;2023-10-19T00:23:37;14.85;;;2.28;;
44774;SDS011;31340;51.402;0.016;2023-10-19T00:26:06;11.80;;;2.10;;
44774;SDS011;31340;51.402;0.016;2023-10-19T00:28:46;21.17;;;4.13;;
44774;SDS011;31340;51.402;0.016;2023-10-19T00:31:19;20.40;;;3.13;;
44774;SDS011;31340;51.402;0.016;2023-10-19T00:33:47;13.73;;;2.35;;
44774;SDS011;31340;51.402;0.016;2023-10-19T00:36:19;18.73;;;2.78;;
44774;SDS011;31340;51.402;0.016;2023-10-19T00:38:51;11.93;;;2.50;;
44774;SDS011;31340;51.402;0.016;2023-10-19T00:41:24;21.45;;;2.67;;
44774;SDS011;31340;51.402;0.016;2023-10-19T00:43:59;13.98;;;2.35;;
44774;SDS011;31340;51.402;0.016;2023-10-19T00:46:31;22.83;;;2.85;;
44774;SDS011;31340;51.402;0.016;2023-10-19T00:49:11;16.60;;;2.67;;
44774;SDS011;31340;51.402;0.016;2023-10-19T00:51:44;23.45;;;2.58;;
44774;SDS011;31340;51.402;0.016;2023-10-19T00:57:25;15.55;;;2.78;;
44774;SDS011;31340;51.402;0.016;2023-10-19T01:00:01;21.63;;;3.00;;
44774;SDS011;31340;51.402;0.016;2023-10-19T01:02:39;16.42;;;2.15;;
44774;SDS011;31340;51.402;0.016;2023-10-19T01:05:13;16.40;;;2.53;;
44774;SDS011;31340;51.402;0.016;2023-10-19T01:07:43;22.05;;;2.65;;
44774;SDS011;31340;51.402;0.016;2023-10-19T01:10:12;29.50;;;3.38;;
44774;SDS011;31340;51.402;0.016;2023-10-19T01:12:47;20.85;;;2.53;;
44774;SDS011;31340;51.402;0.016;2023-10-19T01:15:17;18.52;;;3.45;;
44774;SDS011;31340;51.402;0.016;2023-10-19T01:17:51;21.83;;;4.38;;
44774;SDS011;31340;51.402;0.016;2023-10-19T01:20:29;18.90;;;2.60;;
44774;SDS011;31340;51.402;0.016;2023-10-19T01:23:03;16.15;;;2.08;;
44774;SDS011;31340;51.402;0.016;2023-10-19T01:25:42;20.08;;;2.92;;
44774;SDS011;31340;51.402;0.016;2023-10-19T01:28:37;18.35;;;2.70;;
44774;SDS011;31340;51.402;0.016;2023-10-19T01:31:10;16.75;;;1.88;;
44774;SDS011;31340;51.402;0.016;2023-10-19T01:33:50;16.52;;;2.42;;
44774;SDS011;31340;51.402;0.016;2023-10-19T01:36:17;13.82;;;1.73;;
44774;SDS011;31340;51.402;0.016;2023-10-19T01:38:55;18.42;;;2.40;;
44774;SDS011;31340;51.402;0.016;2023-10-19T01:41:28;8.93;;;1.40;;
44774;SDS011;31340;51.402;0.016;2023-10-19T01:46:32;9.52;;;1.90;;
44774;SDS011;31340;51.402;0.016;2023-10-19T01:49:02;15.57;;;2.22;;
44774;SDS011;31340;51.402;0.016;2023-10-19T01:51:31;10.15;;;1.88;;
44774;SDS011;31340;51.402;0.016;2023-10-19T01:54:00;11.00;;;1.67;;
44774;SDS011;31340;51.402;0.016;2023-10-19T01:56:28;13.32;;;2.22;;
44774;SDS011;31340;51.402;0.016;2023-10-19T01:58:56;12.75;;;1.30;;
44774;SDS011;31340;51.402;0.016;2023-10-19T02:01:26;9.95;;;1.92;;
44774;SDS011;31340;51.402;0.016;2023-10-19T02:04:03;6.07;;;1.60;;
44774;SDS011;31340;51.402;0.016;2023-10-19T02:06:33;12.00;;;2.10;;
44774;SDS011;31340;51.402;0.016;2023-10-19T02:09:10;14.52;;;1.80;;
44774;SDS011;31340;51.402;0.016;2023-10-19T02:11:46;7.25;;;1.85;;
44774;SDS011;31340;51.402;0.016;2023-10-19T02:14:17;15.48;;;2.88;;
44774;SDS011;31340;51.402;0.016;2023-10-19T02:16:49;13.75;;;2.50;;
44774;SDS011;31340;51.402;0.016;2023-10-19T02:19:20;18.55;;;2.30;;
44774;SDS011;31340;51.402;0.016;2023-10-19T02:21:49;9.40;;;1.67;;
44774;SDS011;31340;51.402;0.016;2023-10-19T02:24:20;9.20;;;2.03;;
44774;SDS011;31340;51.402;0.016;2023-10-19T02:26:52;14.63;;;2.35;;
44774;SDS011;31340;51.402;0.016;2023-10-19T02:29:22;10.35;;;2.00;;
44774;SDS011;31340;51.402;0.016;2023-10-19T02:31:51;12.27;;;1.70;;
44774;SDS011;31340;51.402;0.016;2023-10-19T02:34:20;13.15;;;1.70;;
44774;SDS011;31340;51.402;0.016;2023-10-19T02:36:50;11.43;;;1.70;;
44774;SDS011;31340;51.402;0.016;2023-10-19T02:39:18;14.82;;;1.95;;
44774;SDS011;31340;51.402;0.016;2023-10-19T02:41:47;15.27;;;2.53;;
44774;SDS011;31340;51.402;0.016;2023-10-19T02:44:17;9.48;;;1.75;;
44774;SDS011;31340;51.402;0.016;2023-10-19T02:46:50;10.82;;;1.92;;
44774;SDS011;31340;51.402;0.016;2023-10-19T02:49:42;11.75;;;1.65;;
44774;SDS011;31340;51.402;0.016;2023-10-19T02:52:11;14.02;;;1.75;;
44774;SDS011;31340;51.402;0.016;2023-10-19T02:54:43;9.82;;;1.75;;
44774;SDS011;31340;51.402;0.016;2023-10-19T02:57:10;15.18;;;2.97;;
44774;SDS011;31340;51.402;0.016;2023-10-19T02:59:40;17.13;;;2.15;;
44774;SDS011;31340;51.402;0.016;2023-10-19T03:02:08;11.85;;;3.20;;
44774;SDS011;31340;51.402;0.016;2023-10-19T03:04:38;15.73;;;2.58;;
44774;SDS011;31340;51.402;0.016;2023-10-19T03:07:09;14.65;;;2.55;;
44774;SDS011;31340;51.402;0.016;2023-10-19T03:09:39;17.70;;;2.67;;
44774;SDS011;31340;51.402;0.016;2023-10-19T03:12:07;21.42;;;3.20;;
44774;SDS011;31340;51.402;0.016;2023-10-19T03:14:37;21.58;;;3.88;;
44774;SDS011;31340;51.402;0.016;2023-10-19T03:17:05;16.08;;;3.15;;
44774;SDS011;31340;51.402;0.016;2023-10-19T03:19:36;18.80;;;2.75;;
44774;SDS011;31340;51.402;0.016;2023-10-19T03:22:03;21.75;;;3.35;;
44774;SDS011;31340;51.402;0.016;2023-10-19T03:24:33;15.32;;;3.30;;
44774;SDS011;31340;51.402;0.016;2023-10-19T03:27:08;25.38;;;4.35;;
44774;SDS011;31340;51.402;0.016;2023-10-19T03:29:43;16.88;;;2.58;;
44774;SDS011;31340;51.402;0.016;2023-10-19T03:32:14;14.98;;;3.53;;
44774;SDS011;31340;51.402;0.016;2023-10-19T03:34:49;22.80;;;3.17;;
44774;SDS011;31340;51.402;0.016;2023-10-19T03:37:19;23.30;;;4.05;;
44774;SDS011;31340;51.402;0.016;2023-10-19T03:39:48;23.17;;;3.47;;
44774;SDS011;31340;51.402;0.016;2023-10-19T03:42:16;20.73;;;3.47;;
44774;SDS011;31340;51.402;0.016;2023-10-19T03:44:44;23.38;;;3.35;;
44774;SDS011;31340;51.402;0.016;2023-10-19T03:47:14;30.15;;;4.70;;
44774;SDS011;31340;51.402;0.016;2023-10-19T03:49:46;20.85;;;3.30;;
44774;SDS011;31340;51.402;0.016;2023-10-19T03:52:16;26.95;;;3.63;;
44774;SDS011;31340;51.402;0.016;2023-10-19T03:54:44;23.98;;;3.70;;
44774;SDS011;31340;51.402;0.016;2023-10-19T03:57:15;25.60;;;3.97;;
44774;SDS011;31340;51.402;0.016;2023-10-19T03:59:50;25.75;;;4.53;;
44774;SDS011;31340;51.402;0.016;2023-10-19T04:02:24;24.05;;;3.40;;
44774;SDS011;31340;51.402;0.016;2023-10-19T04:04:54;26.30;;;3.58;;
44774;SDS011;31340;51.402;0.016;2023-10-19T04:07:24;22.80;;;4.80;;
44774;SDS011;31340;51.402;0.016;2023-10-19T04:09:54;27.67;;;4.15;;
44774;SDS011;31340;51.402;0.016;2023-10-19T04:12:35;24.13;;;3.85;;
44774;SDS011;31340;51.402;0.016;2023-10-19T04:15:05;21.77;;;3.17;;
44774;SDS011;31340;51.402;0.016;2023-10-19T04:17:43;26.55;;;3.85;;
44774;SDS011;31340;51.402;0.016;2023-10-19T04:20:17;32.33;;;5.93;;
44774;SDS011;31340;51.402;0.016;2023-10-19T04:22:45;23.90;;;3.88;;
44774;SDS011;31340;51.402;0.016;2023-10-19T04:25:16;16.05;;;2.15;;
44774;SDS011;31340;51.402;0.016;2023-10-19T04:27:48;14.10;;;2.95;;
44774;SDS011;31340;51.402;0.016;2023-10-19T04:30:16;18.10;;;2.95;;
44774;SDS011;31340;51.402;0.016;2023-10-19T04:32:45;16.30;;;2.22;;
44774;SDS011;31340;51.402;0.016;2023-10-19T04:35:13;15.43;;;2.53;;
44774;SDS011;31340;51.402;0.016;2023-10-19T04:40:17;18.77;;;2.78;;
44774;SDS011;31340;51.402;0.016;2023-10-19T04:42:46;18.67;;;2.72;;
44774;SDS011;31340;51.402;0.016;2023-10-19T04:45:15;14.73;;;2.80;;
44774;SDS011;31340;51.402;0.016;2023-10-19T04:47:42;12.15;;;2.47;;
44774;SDS011;31340;51.402;0.016;2023-10-19T04:50:10;18.40;;;2.53;;
44774;SDS011;31340;51.402;0.016;2023-10-19T04:52:38;17.52;;;3.03;;
44774;SDS011;31340;51.402;0.016;2023-10-19T04:55:07;17.33;;;3.10;;
44774;SDS011;31340;51.402;0.016;2023-10-19T04:57:34;24.10;;;4.22;;
44774;SDS011;31340;51.402;0.016;2023-10-19T05:00:02;33.03;;;4.05;;
44774;SDS011;31340;51.402;0.016;2023-10-19T05:02:31;16.38;;;2.95;;
44774;SDS011;31340;51.402;0.016;2023-10-19T05:04:59;27.35;;;4.47;;
44774;SDS011;31340;51.402;0.016;2023-10-19T05:07:26;28.00;;;3.95;;
44774;SDS011;31340;51.402;0.016;2023-10-19T05:09:54;21.13;;;3.92;;
44774;SDS011;31340;51.402;0.016;2023-10-19T05:12:21;23.52;;;4.03;;
44774;SDS011;31340;51.402;0.016;2023-10-19T05:14:50;24.35;;;4.22;;
44774;SDS011;31340;51.402;0.016;2023-10-19T05:17:17;33.33;;;4.50;;
44774;SDS011;31340;51.402;0.016;2023-10-19T05:19:48;32.33;;;4.72;;
44774;SDS011;31340;51.402;0.016;2023-10-19T05:22:16;30.13;;;4.43;;
44774;SDS011;31340;51.402;0.016;2023-10-19T05:24:44;26.35;;;5.28;;
44774;SDS011;31340;51.402;0.016;2023-10-19T05:27:12;29.75;;;4.30;;
44774;SDS011;31340;51.402;0.016;2023-10-19T05:29:43;27.08;;;4.60;;
44774;SDS011;31340;51.402;0.016;2023-10-19T05:32:11;29.30;;;4.57;;
44774;SDS011;31340;51.402;0.016;2023-10-19T05:34:39;23.80;;;3.42;;
44774;SDS011;31340;51.402;0.016;2023-10-19T05:37:06;26.17;;;4.38;;
44774;SDS011;31340;51.402;0.016;2023-10-19T05:39:36;30.80;;;4.78;;
44774;SDS011;31340;51.402;0.016;2023-10-19T05:42:04;26.10;;;4.18;;
44774;SDS011;31340;51.402;0.016;2023-10-19T05:44:33;44.47;;;5.65;;
44774;SDS011;31340;51.402;0.016;2023-10-19T05:47:01;29.23;;;3.90;;
44774;SDS011;31340;51.402;0.016;2023-10-19T05:49:29;24.05;;;4.50;;
44774;SDS011;31340;51.402;0.016;2023-10-19T05:51:59;23.00;;;4.03;;
44774;SDS011;31340;51.402;0.016;2023-10-19T05:54:27;26.92;;;4.18;;
44774;SDS011;31340;51.402;0.016;2023-10-19T05:56:55;24.63;;;3.75;;
44774;SDS011;31340;51.402;0.016;2023-10-19T05:59:23;28.65;;;5.03;;
44774;SDS011;31340;51.402;0.016;2023-10-19T06:01:53;24.60;;;4.50;;
44774;SDS011;31340;51.402;0.016;2023-10-19T06:04:21;27.70;;;4.10;;
44774;SDS011;31340;51.402;0.016;2023-10-19T06:06:49;21.83;;;3.15;;
44774;SDS011;31340;51.402;0.016;2023-10-19T06:09:17;21.60;;;3.80;;
44774;SDS011;31340;51.402;0.016;2023-10-19T06:11:46;21.17;;;3.78;;
44774;SDS011;31340;51.402;0.016;2023-10-19T06:14:14;18.80;;;4.20;;
44774;SDS011;31340;51.402;0.016;2023-10-19T06:16:42;24.48;;;3.95;;
44774;SDS011;31340;51.402;0.016;2023-10-19T06:19:10;31.42;;;4.70;;
44774;SDS011;31340;51.402;0.016;2023-10-19T06:21:38;19.33;;;3.90;;
44774;SDS011;31340;51.402;0.016;2023-10-19T06:24:07;26.95;;;3.63;;
44774;SDS011;31340;51.402;0.016;2023-10-19T06:26:34;25.30;;;3.80;;
44774;SDS011;31340;51.402;0.016;2023-10-19T06:29:03;27.85;;;3.85;;
44774;SDS011;31340;51.402;0.016;2023-10-19T06:31:32;22.35;;;4.38;;
44774;SDS011;31340;51.402;0.016;2023-10-19T06:33:59;33.53;;;5.25;;
44774;SDS011;31340;51.402;0.016;2023-10-19T06:36:28;26.63;;;4.43;;
44774;SDS011;31340;51.402;0.016;2023-10-19T06:38:58;34.78;;;4.28;;
44774;SDS011;31340;51.402;0.016;2023-10-19T06:41:28;21.40;;;4.30;;
44774;SDS011;31340;51.402;0.016;2023-10-19T06:43:55;24.48;;;4.63;;
44774;SDS011;31340;51.402;0.016;2023-10-19T06:46:25;31.98;;;4.35;;
44774;SDS011;31340;51.402;0.016;2023-10-19T06:48:54;27.35;;;4.13;;
44774;SDS011;31340;51.402;0.016;2023-10-19T06:51:27;29.85;;;4.70;;
44774;SDS011;31340;51.402;0.016;2023-10-19T06:53:54;40.33;;;6.25;;
44774;SDS011;31340;51.402;0.016;2023-10-19T06:56:22;31.70;;;4.75;;
44774;SDS011;31340;51.402;0.016;2023-10-19T06:58:50;27.55;;;4.22;;
44774;SDS011;31340;51.402;0.016;2023-10-19T07:01:18;26.95;;;3.72;;
44774;SDS011;31340;51.402;0.016;2023-10-19T07:03:51;35.55;;;5.03;;
44774;SDS011;31340;51.402;0.016;2023-10-19T07:06:20;30.92;;;3.95;;
44774;SDS011;31340;51.402;0.016;2023-10-19T07:08:48;21.90;;;4.63;;
44774;SDS011;31340;51.402;0.016;2023-10-19T07:11:15;20.08;;;4.68;;
44774;SDS011;31340;51.402;0.016;2023-10-19T07:13:43;23.92;;;4.47;;
44774;SDS011;31340;51.402;0.016;2023-10-19T07:16:11;28.15;;;4.70;;
44774;SDS011;31340;51.402;0.016;2023-10-19T07:18:39;35.08;;;4.53;;
44774;SDS011;31340;51.402;0.016;2023-10-19T07:21:07;24.65;;;4.35;;
44774;SDS011;31340;51.402;0.016;2023-10-19T07:23:36;22.50;;;3.90;;
44774;SDS011;31340;51.402;0.016;2023-10-19T07:26:05;19.98;;;3.15;;
44774;SDS011;31340;51.402;0.016;2023-10-19T07:28:33;23.48;;;3.67;;
44774;SDS011;31340;51.402;0.016;2023-10-19T07:31:05;21.17;;;3.80;;
44774;SDS011;31340;51.402;0.016;2023-10-19T07:33:42;29.48;;;5.05;;
44774;SDS011;31340;51.402;0.016;2023-10-19T07:36:13;26.23;;;4.20;;
44774;SDS011;31340;51.402;0.016;2023-10-19T07:38:45;20.95;;;3.78;;
44774;SDS011;31340;51.402;0.016;2023-10-19T07:41:14;25.65;;;4.00;;
44774;SDS011;31340;51.402;0.016;2023-10-19T07:43:42;27.38;;;3.15;;
44774;SDS011;31340;51.402;0.016;2023-10-19T07:46:11;17.63;;;3.05;;
44774;SDS011;31340;51.402;0.016;2023-10-19T07:48:39;18.23;;;3.17;;
44774;SDS011;31340;51.402;0.016;2023-10-19T07:51:08;14.50;;;3.67;;
44774;SDS011;31340;51.402;0.016;2023-10-19T07:56:05;20.45;;;3.40;;
44774;SDS011;31340;51.402;0.016;2023-10-19T07:58:33;15.55;;;2.70;;
44774;SDS011;31340;51.402;0.016;2023-10-19T08:01:01;17.70;;;2.90;;
44774;SDS011;31340;51.402;0.016;2023-10-19T08:03:31;19.20;;;3.65;;
44774;SDS011;31340;51.402;0.016;2023-10-19T08:05:59;33.63;;;3.90;;
44774;SDS011;31340;51.402;0.016;2023-10-19T08:08:26;28.13;;;4.30;;
44774;SDS011;31340;51.402;0.016;2023-10-19T08:11:01;19.33;;;3.28;;
44774;SDS011;31340;51.402;0.016;2023-10-19T08:13:28;22.58;;;3.85;;
44774;SDS011;31340;51.402;0.016;2023-10-19T08:15:59;21.75;;;3.70;;
44774;SDS011;31340;51.402;0.016;2023-10-19T08:18:26;29.50;;;4.00;;
44774;SDS011;31340;51.402;0.016;2023-10-19T08:20:55;23.85;;;3.90;;
44774;SDS011;31340;51.402;0.016;2023-10-19T08:23:22;21.70;;;3.75;;
44774;SDS011;31340;51.402;0.016;2023-10-19T08:25:54;31.75;;;4.10;;
44774;SDS011;31340;51.402;0.016;2023-10-19T08:28:24;27.30;;;4.20;;
44774;SDS011;31340;51.402;0.016;2023-10-19T08:30:52;19.50;;;3.35;;
44774;SDS011;31340;51.402;0.016;2023-10-19T08:33:30;23.20;;;4.50;;
44774;SDS011;31340;51.402;0.016;2023-10-19T08:36:01;24.40;;;4.13;;
44774;SDS011;31340;51.402;0.016;2023-10-19T08:38:29;27.85;;;3.92;;
44774;SDS011;31340;51.402;0.016;2023-10-19T08:40:57;22.23;;;3.80;;
44774;SDS011;31340;51.402;0.016;2023-10-19T08:43:25;28.30;;;4.03;;
44774;SDS011;31340;51.402;0.016;2023-10-19T08:45:55;26.20;;;3.88;;
44774;SDS011;31340;51.402;0.016;2023-10-19T08:48:23;28.73;;;4.53;;
44774;SDS011;31340;51.402;0.016;2023-10-19T08:50:51;22.98;;;3.53;;
44774;SDS011;31340;51.402;0.016;2023-10-19T08:53:20;25.08;;;3.80;;
44774;SDS011;31340;51.402;0.016;2023-10-19T08:55:49;33.20;;;3.83;;
44774;SDS011;31340;51.402;0.016;2023-10-19T08:58:18;27.65;;;4.63;;
44774;SDS011;31340;51.402;0.016;2023-10-19T09:00:48;24.60;;;4.60;;
44774;SDS011;31340;51.402;0.016;2023-10-19T09:03:24;31.65;;;5.13;;
44774;SDS011;31340;51.402;0.016;2023-10-19T09:05:54;26.25;;;4.13;;
44774;SDS011;31340;51.402;0.016;2023-10-19T09:08:23;25.55;;;4.22;;
44774;SDS011;31340;51.402;0.016;2023-10-19T09:10:51;19.23;;;4.55;;
44774;SDS011;31340;51.402;0.016;2023-10-19T09:13:22;25.33;;;4.43;;
44774;SDS011;31340;51.402;0.016;2023-10-19T09:15:51;29.30;;;4.88;;
44774;SDS011;31340;51.402;0.016;2023-10-19T09:18:22;27.85;;;3.78;;
44774;SDS011;31340;51.402;0.016;2023-10-19T09:20:51;16.23;;;3.33;;
44774;SDS011;31340;51.402;0.016;2023-10-19T09:23:23;18.73;;;3.75;;
44774;SDS011;31340;51.402;0.016;2023-10-19T09:25:53;17.25;;;3.95;;
44774;SDS011;31340;51.402;0.016;2023-10-19T09:28:23;27.10;;;4.85;;
44774;SDS011;31340;51.402;0.016;2023-10-19T09:30:52;23.50;;;4.40;;
44774;SDS011;31340;51.402;0.016;2023-10-19T09:33:22;17.10;;;3.40;;
44774;SDS011;31340;51.402;0.016;2023-10-19T09:35:51;22.92;;;4.20;;
44774;SDS011;31340;51.402;0.016;2023-10-19T09:38:24;21.83;;;4.75;;
44774;SDS011;31340;51.402;0.016;2023-10-19T09:40:52;12.77;;;4.20;;
44774;SDS011;31340;51.402;0.016;2023-10-19T09:43:24;20.43;;;4.53;;
44774;SDS011;31340;51.402;0.016;2023-10-19T09:46:07;22.52;;;4.05;;
44774;SDS011;31340;51.402;0.016;2023-10-19T09:48:42;22.33;;;4.45;;
44774;SDS011;31340;51.402;0.016;2023-10-19T09:51:16;20.90;;;4.07;;
44774;SDS011;31340;51.402;0.016;2023-10-19T09:57:02;19.00;;;4.28;;
44774;SDS011;31340;51.402;0.016;2023-10-19T09:59:38;19.80;;;4.10;;
44774;SDS011;31340;51.402;0.016;2023-10-19T10:02:08;18.05;;;3.88;;
44774;SDS011;31340;51.402;0.016;2023-10-19T10:04:41;24.70;;;4.07;;
44774;SDS011;31340;51.402;0.016;2023-10-19T10:07:10;21.52;;;3.67;;
44774;SDS011;31340;51.402;0.016;2023-10-19T10:09:39;18.92;;;3.28;;
44774;SDS011;31340;51.402;0.016;2023-10-19T10:12:17;20.27;;;3.70;;
44774;SDS011;31340;51.402;0.016;2023-10-19T10:14:55;24.20;;;3.88;;
44774;SDS011;31340;51.402;0.016;2023-10-19T10:17:25;15.55;;;3.50;;
44774;SDS011;31340;51.402;0.016;2023-10-19T10:20:07;12.85;;;3.20;;
44774;SDS011;31340;51.402;0.016;2023-10-19T10:23:15;25.90;;;3.90;;
44774;SDS011;31340;51.402;0.016;2023-10-19T10:25:45;24.98;;;4.63;;
44774;SDS011;31340;51.402;0.016;2023-10-19T10:28:16;22.95;;;4.43;;
44774;SDS011;31340;51.402;0.016;2023-10-19T10:33:53;16.17;;;3.72;;
44774;SDS011;31340;51.402;0.016;2023-10-19T10:36:22;21.25;;;3.38;;
44774;SDS011;31340;51.402;0.016;2023-10-19T10:38:51;19.67;;;3.88;;
44774;SDS011;31340;51.402;0.016;2023-10-19T10:41:25;12.68;;;3.72;;
44774;SDS011;31340;51.402;0.016;2023-10-19T10:43:56;21.13;;;5.97;;
44774;SDS011;31340;51.402;0.016;2023-10-19T10:46:25;17.20;;;3.83;;
44774;SDS011;31340;51.402;0.016;2023-10-19T10:48:56;20.67;;;3.97;;
44774;SDS011;31340;51.402;0.016;2023-10-19T10:51:25;23.30;;;4.30;;
44774;SDS011;31340;51.402;0.016;2023-10-19T10:53:57;14.73;;;3.85;;
44774;SDS011;31340;51.402;0.016;2023-10-19T10:56:27;13.30;;;3.45;;
44774;SDS011;31340;51.402;0.016;2023-10-19T10:58:55;21.95;;;3.42;;
44774;SDS011;31340;51.402;0.016;2023-10-19T11:01:30;14.52;;;4.18;;
44774;SDS011;31340;51.402;0.016;2023-10-19T11:04:07;14.95;;;3.33;;
44774;SDS011;31340;51.402;0.016;2023-10-19T11:06:49;17.55;;;3.47;;
44774;SDS011;31340;51.402;0.016;2023-10-19T11:09:18;16.13;;;3.42;;
44774;SDS011;31340;51.402;0.016;2023-10-19T11:11:45;15.38;;;3.05;;
44774;SDS011;31340;51.402;0.016;2023-10-19T11:14:13;18.08;;;3.17;;
44774;SDS011;31340;51.402;0.016;2023-10-19T11:16:42;18.00;;;4.32;;
44774;SDS011;31340;51.402;0.016;2023-10-19T11:19:10;17.35;;;3.30;;
44774;SDS011;31340;51.402;0.016;2023-10-19T11:21:50;17.98;;;3.47;;
44774;SDS011;31340;51.402;0.016;2023-10-19T11:24:26;17.65;;;3.50;;
44774;SDS011;31340;51.402;0.016;2023-10-19T11:26:57;25.88;;;5.20;;
44774;SDS011;31340;51.402;0.016;2023-10-19T11:29:25;15.10;;;4.72;;
44774;SDS011;31340;51.402;0.016;2023-10-19T11:31:59;21.02;;;4.13;;
44774;SDS011;31340;51.402;0.016;2023-10-19T11:34:28;20.33;;;5.25;;
44774;SDS011;31340;51.402;0.016;2023-10-19T11:36:58;13.55;;;3.10;;
44774;SDS011;31340;51.402;0.016;2023-10-19T11:39:27;18.13;;;3.85;;
44774;SDS011;31340;51.402;0.016;2023-10-19T11:41:56;20.77;;;4.20;;
44774;SDS011;31340;51.402;0.016;2023-10-19T11:44:24;19.73;;;3.78;;
44774;SDS011;31340;51.402;0.016;2023-10-19T11:46:51;15.27;;;3.63;;
44774;SDS011;31340;51.402;0.016;2023-10-19T11:49:19;20.17;;;4.50;;
44774;SDS011;31340;51.402;0.016;2023-10-19T11:51:50;15.82;;;3.75;;
44774;SDS011;31340;51.402;0.016;2023-10-19T11:54:18;16.65;;;4.20;;
44774;SDS011;31340;51.402;0.016;2023-10-19T11:56:45;22.20;;;4.50;;
44774;SDS011;31340;51.402;0.016;2023-10-19T11:59:13;17.02;;;3.80;;
44774;SDS011;31340;51.402;0.016;2023-10-19T12:01:42;19.38;;;3.45;;
44774;SDS011;31340;51.402;0.016;2023-10-19T12:04:10;23.02;;;4.22;;
44774;SDS011;31340;51.402;0.016;2023-10-19T12:06:37;18.02;;;3.13;;
44774;SDS011;31340;51.402;0.016;2023-10-19T12:09:05;21.88;;;3.78;;
44774;SDS011;31340;51.402;0.016;2023-10-19T12:11:42;17.60;;;3.67;;
44774;SDS011;31340;51.402;0.016;2023-10-19T12:14:14;23.60;;;4.45;;
44774;SDS011;31340;51.402;0.016;2023-10-19T12:16:42;23.20;;;4.25;;
44774;SDS011;31340;51.402;0.016;2023-10-19T12:19:10;17.48;;;3.55;;
44774;SDS011;31340;51.402;0.016;2023-10-19T12:21:38;17.10;;;3.35;;
44774;SDS011;31340;51.402;0.016;2023-10-19T12:24:08;15.95;;;3.58;;
44774;SDS011;31340;51.402;0.016;2023-10-19T12:26:36;18.08;;;3.85;;
44774;SDS011;31340;51.402;0.016;2023-10-19T12:29:03;22.48;;;4.05;;
44774;SDS011;31340;51.402;0.016;2023-10-19T12:31:34;21.83;;;3.83;;
44774;SDS011;31340;51.402;0.016;2023-10-19T12:34:02;19.35;;;3.95;;
44774;SDS011;31340;51.402;0.016;2023-10-19T12:36:36;22.27;;;3.97;;
44774;SDS011;31340;51.402;0.016;2023-10-19T12:39:04;16.65;;;4.38;;
44774;SDS011;31340;51.402;0.016;2023-10-19T12:41:34;18.42;;;3.80;;
44774;SDS011;31340;51.402;0.016;2023-10-19T12:44:02;21.75;;;3.88;;
44774;SDS011;31340;51.402;0.016;2023-10-19T12:46:35;18.00;;;4.22;;
44774;SDS011;31340;51.402;0.016;2023-10-19T12:49:04;19.38;;;3.55;;
44774;SDS011;31340;51.402;0.016;2023-10-19T12:51:35;21.00;;;3.50;;
44774;SDS011;31340;51.402;0.016;2023-10-19T12:54:03;19.20;;;4.15;;
44774;SDS011;31340;51.402;0.016;2023-10-19T12:56:31;18.33;;;3.47;;
44774;SDS011;31340;51.402;0.016;2023-10-19T12:59:00;22.42;;;3.67;;
44774;SDS011;31340;51.402;0.016;2023-10-19T13:01:28;15.65;;;2.88;;
44774;SDS011;31340;51.402;0.016;2023-10-19T13:03:56;17.20;;;3.40;;
44774;SDS011;31340;51.402;0.016;2023-10-19T13:06:23;20.55;;;4.05;;
44774;SDS011;31340;51.402;0.016;2023-10-19T13:08:56;17.13;;;3.13;;
44774;SDS011;31340;51.402;0.016;2023-10-19T13:11:25;24.55;;;4.45;;
44774;SDS011;31340;51.402;0.016;2023-10-19T13:13:54;18.17;;;3.40;;
44774;SDS011;31340;51.402;0.016;2023-10-19T13:16:22;12.98;;;3.08;;
44774;SDS011;31340;51.402;0.016;2023-10-19T13:18:49;12.75;;;2.72;;
44774;SDS011;31340;51.402;0.016;2023-10-19T13:21:17;9.43;;;3.70;;
44774;SDS011;31340;51.402;0.016;2023-10-19T13:23:49;12.30;;;3.20;;
44774;SDS011;31340;51.402;0.016;2023-10-19T13:26:18;11.32;;;2.58;;
44774;SDS011;31340;51.402;0.016;2023-10-19T13:28:46;11.98;;;2.65;;
44774;SDS011;31340;51.402;0.016;2023-10-19T13:31:14;17.35;;;3.78;;
44774;SDS011;31340;51.402;0.016;2023-10-19T13:33:43;9.80;;;2.40;;
44774;SDS011;31340;51.402;0.016;2023-10-19T13:36:12;16.63;;;3.00;;
44774;SDS011;31340;51.402;0.016;2023-10-19T13:38:40;8.85;;;2.63;;
44774;SDS011;31340;51.402;0.016;2023-10-19T13:41:08;11.85;;;2.45;;
44774;SDS011;31340;51.402;0.016;2023-10-19T13:43:41;10.68;;;2.83;;
44774;SDS011;31340;51.402;0.016;2023-10-19T13:46:11;10.32;;;2.47;;
44774;SDS011;31340;51.402;0.016;2023-10-19T13:48:39;9.85;;;2.50;;
44774;SDS011;31340;51.402;0.016;2023-10-19T13:51:07;9.38;;;2.40;;
44774;SDS011;31340;51.402;0.016;2023-10-19T13:53:42;11.82;;;3.50;;
44774;SDS011;31340;51.402;0.016;2023-10-19T13:56:12;11.48;;;2.45;;
44774;SDS011;31340;51.402;0.016;2023-10-19T13:58:42;8.87;;;2.27;;
44774;SDS011;31340;51.402;0.016;2023-10-19T14:01:10;7.57;;;2.65;;
44774;SDS011;31340;51.402;0.016;2023-10-19T14:03:41;8.88;;;2.30;;
44774;SDS011;31340;51.402;0.016;2023-10-19T14:06:12;10.57;;;2.90;;
44774;SDS011;31340;51.402;0.016;2023-10-19T14:08:44;11.30;;;2.55;;
44774;SDS011;31340;51.402;0.016;2023-10-19T14:11:12;14.68;;;2.60;;
44774;SDS011;31340;51.402;0.016;2023-10-19T14:13:40;10.77;;;3.35;;
44774;SDS011;31340;51.402;0.016;2023-10-19T14:16:10;14.25;;;3.15;;
44774;SDS011;31340;51.402;0.016;2023-10-19T14:18:38;12.48;;;2.35;;
44774;SDS011;31340;51.402;0.016;2023-10-19T14:21:10;18.10;;;4.03;;
44774;SDS011;31340;51.402;0.016;2023-10-19T14:23:41;13.90;;;3.50;;
44774;SDS011;31340;51.402;0.016;2023-10-19T14:26:10;19.23;;;4.15;;
44774;SDS011;31340;51.402;0.016;2023-10-19T14:28:39;15.52;;;3.20;;
44774;SDS011;31340;51.402;0.016;2023-10-19T14:31:08;17.75;;;3.63;;
44774;SDS011;31340;51.402;0.016;2023-10-19T14:33:38;18.55;;;3.58;;
44774;SDS011;31340;51.402;0.016;2023-10-19T14:36:07;20.20;;;3.95;;
44774;SDS011;31340;51.402;0.016;2023-10-19T14:38:36;16.77;;;3.47;;
44774;SDS011;31340;51.402;0.016;2023-10-19T14:41:06;13.82;;;3.38;;
44774;SDS011;31340;51.402;0.016;2023-10-19T14:43:36;17.33;;;3.08;;
44774;SDS011;31340;51.402;0.016;2023-10-19T14:46:05;16.75;;;4.10;;
44774;SDS011;31340;51.402;0.016;2023-10-19T14:48:33;14.88;;;3.20;;
44774;SDS011;31340;51.402;0.016;2023-10-19T14:51:03;19.00;;;3.88;;
44774;SDS011;31340;51.402;0.016;2023-10-19T14:53:33;19.00;;;5.20;;
44774;SDS011;31340;51.402;0.016;2023-10-19T14:56:01;20.30;;;3.35;;
44774;SDS011;31340;51.402;0.016;2023-10-19T14:58:29;12.38;;;2.92;;
44774;SDS011;31340;51.402;0.016;2023-10-19T15:00:59;16.08;;;3.28;;
44774;SDS011;31340;51.402;0.016;2023-10-19T15:03:27;17.10;;;3.70;;
44774;SDS011;31340;51.402;0.016;2023-10-19T15:05:56;19.92;;;4.00;;
44774;SDS011;31340;51.402;0.016;2023-10-19T15:13:28;23.17;;;3.92;;
44774;SDS011;31340;51.402;0.016;2023-10-19T15:15:56;18.55;;;3.63;;
44774;SDS011;31340;51.402;0.016;2023-10-19T15:18:24;17.98;;;3.35;;